createdAt,value
2018-05-08T00:05:39.329Z,7.00
2018-05-08T00:08:05.949Z,7.40
2018-05-08T00:10:32.566Z,6.83
2018-05-08T00:12:59.169Z,9.23
2018-05-08T00:15:25.794Z,6.97
2018-05-08T00:17:52.416Z,10.77
2018-05-08T00:20:19.058Z,7.10
2018-05-08T00:23:00.635Z,6.50
2018-05-08T00:25:27.308Z,7.50
2018-05-08T00:28:00.676Z,7.17
2018-05-08T00:30:27.181Z,8.90
2018-05-08T00:32:53.813Z,9.10
2018-05-08T00:35:20.447Z,7.20
2018-05-08T00:37:47.213Z,8.30
2018-05-08T00:40:13.668Z,8.67
2018-05-08T00:42:40.251Z,6.97
2018-05-08T00:45:06.757Z,7.70
2018-05-08T00:47:33.496Z,7.83
2018-05-08T00:50:00.145Z,6.77
2018-05-08T00:52:26.716Z,8.20
2018-05-08T00:55:07.793Z,8.53
2018-05-08T00:57:34.365Z,9.93
2018-05-08T01:00:00.957Z,7.63
2018-05-08T01:02:27.594Z,9.40
2018-05-08T01:04:54.222Z,10.70
2018-05-08T01:07:20.757Z,10.77
2018-05-08T01:09:47.326Z,6.73
2018-05-08T01:12:13.838Z,9.60
2018-05-08T01:14:40.397Z,9.97
2018-05-08T01:17:07.023Z,11.20
2018-05-08T01:19:33.647Z,10.77
2018-05-08T01:22:00.187Z,9.90
2018-05-08T01:24:26.731Z,10.07
2018-05-08T01:26:53.241Z,9.17
2018-05-08T01:29:19.857Z,7.50
2018-05-08T01:31:46.429Z,9.53
2018-05-08T01:34:12.932Z,8.87
2018-05-08T01:36:39.541Z,11.90
2018-05-08T01:39:06.254Z,8.57
2018-05-08T01:41:32.909Z,9.50
2018-05-08T01:43:59.548Z,10.27
2018-05-08T01:46:25.982Z,10.27
2018-05-08T01:48:52.477Z,8.80
2018-05-08T01:51:18.941Z,9.07
2018-05-08T01:53:45.551Z,11.47
2018-05-08T01:56:12.237Z,10.73
2018-05-08T01:58:38.906Z,7.73
2018-05-08T02:01:05.467Z,7.97
2018-05-08T02:03:32.064Z,7.43
2018-05-08T02:05:58.805Z,8.70
2018-05-08T02:08:25.377Z,9.50
2018-05-08T02:10:51.832Z,8.50
2018-05-08T02:13:18.245Z,8.93
2018-05-08T02:15:44.865Z,12.97
2018-05-08T02:18:11.275Z,8.13
2018-05-08T02:20:38.062Z,9.67
2018-05-08T02:23:04.576Z,9.17
2018-05-08T02:25:31.168Z,12.37
2018-05-08T02:27:57.691Z,10.57
2018-05-08T02:30:24.301Z,9.70
2018-05-08T02:32:50.760Z,10.53
2018-05-08T02:35:17.227Z,8.20
2018-05-08T02:37:43.814Z,8.83
2018-05-08T02:40:10.336Z,8.77
2018-05-08T02:42:36.896Z,11.13
2018-05-08T02:45:03.674Z,8.57
2018-05-08T02:47:30.253Z,8.17
2018-05-08T02:49:56.950Z,8.43
2018-05-08T02:52:23.525Z,9.23
2018-05-08T02:54:50.081Z,9.77
2018-05-08T02:57:16.621Z,9.40
2018-05-08T02:59:43.176Z,10.20
2018-05-08T03:02:09.717Z,11.83
2018-05-08T03:04:36.222Z,11.50
2018-05-08T03:07:02.901Z,8.83
2018-05-08T03:09:29.455Z,10.80
2018-05-08T03:11:56.124Z,11.00
2018-05-08T03:14:22.588Z,11.17
2018-05-08T03:16:49.141Z,9.40
2018-05-08T03:19:15.933Z,10.40
2018-05-08T03:21:42.589Z,10.27
2018-05-08T03:24:09.512Z,9.13
2018-05-08T03:26:35.985Z,10.70
2018-05-08T03:29:02.494Z,8.60
2018-05-08T03:31:29.117Z,9.27
2018-05-08T03:33:55.621Z,8.87
2018-05-08T03:36:22.273Z,8.53
2018-05-08T03:38:48.800Z,8.87
2018-05-08T03:41:15.374Z,9.37
2018-05-08T03:43:42.187Z,13.37
2018-05-08T03:46:08.669Z,14.53
2018-05-08T03:48:35.289Z,10.90
2018-05-08T03:51:01.796Z,9.50
2018-05-08T03:53:28.743Z,9.20
2018-05-08T03:55:55.167Z,10.23
2018-05-08T03:58:21.640Z,12.23
2018-05-08T04:01:00.220Z,10.20
2018-05-08T04:03:39.017Z,10.53
2018-05-08T04:08:59.945Z,11.53
2018-05-08T04:11:26.700Z,12.57
2018-05-08T04:13:53.195Z,9.63
2018-05-08T04:16:20.189Z,13.43
2018-05-08T04:18:46.750Z,15.37
2018-05-08T04:21:13.463Z,14.80
2018-05-08T04:23:40.013Z,14.90
2018-05-08T04:26:06.624Z,16.97
2018-05-08T04:28:33.176Z,13.33
2018-05-08T04:30:59.733Z,13.63
2018-05-08T04:33:26.331Z,12.10
2018-05-08T04:35:52.874Z,12.43
2018-05-08T04:38:19.681Z,14.60
2018-05-08T04:40:46.321Z,10.83
2018-05-08T04:43:12.837Z,14.67
2018-05-08T04:45:39.409Z,12.60
2018-05-08T04:48:06.012Z,12.10
2018-05-08T04:50:32.634Z,13.20
2018-05-08T04:52:59.310Z,12.47
2018-05-08T04:55:26.054Z,13.20
2018-05-08T04:57:52.717Z,16.07
2018-05-08T05:00:19.272Z,14.90
2018-05-08T05:02:45.961Z,18.03
2018-05-08T05:05:12.661Z,13.07
2018-05-08T05:07:39.352Z,17.90
2018-05-08T05:10:05.982Z,16.27
2018-05-08T05:12:32.733Z,16.57
2018-05-08T05:14:59.365Z,13.30
2018-05-08T05:17:25.905Z,13.63
2018-05-08T05:19:52.430Z,19.80
2018-05-08T05:22:19.101Z,17.63
2018-05-08T05:24:45.674Z,13.97
2018-05-08T05:27:12.341Z,14.10
2018-05-08T05:29:38.926Z,11.90
2018-05-08T05:32:05.707Z,13.67
2018-05-08T05:34:32.789Z,15.37
2018-05-08T05:36:59.261Z,17.63
2018-05-08T05:39:25.776Z,12.20
2018-05-08T05:41:52.336Z,14.33
2018-05-08T05:44:18.903Z,12.47
2018-05-08T05:46:45.512Z,12.03
2018-05-08T05:49:12.259Z,14.40
2018-05-08T05:51:38.880Z,12.07
2018-05-08T05:54:05.584Z,13.27
2018-05-08T05:56:32.285Z,12.10
2018-05-08T05:58:58.739Z,12.53
2018-05-08T06:01:25.225Z,14.87
2018-05-08T06:03:51.793Z,17.97
2018-05-08T06:06:18.300Z,12.23
2018-05-08T06:08:44.802Z,14.87
2018-05-08T06:11:11.439Z,12.50
2018-05-08T06:13:37.940Z,12.27
2018-05-08T06:16:04.365Z,14.77
2018-05-08T06:18:30.872Z,12.67
2018-05-08T06:20:57.414Z,18.30
2018-05-08T06:23:23.927Z,15.03
2018-05-08T06:25:50.526Z,13.60
2018-05-08T06:28:16.979Z,14.43
2018-05-08T06:30:43.637Z,16.30
2018-05-08T06:36:02.533Z,15.90
2018-05-08T06:38:29.274Z,13.67
2018-05-08T06:40:55.865Z,14.50
2018-05-08T06:43:22.441Z,14.17
2018-05-08T06:45:48.980Z,10.90
2018-05-08T06:48:15.548Z,10.83
2018-05-08T06:50:42.145Z,15.60
2018-05-08T06:53:08.841Z,12.00
2018-05-08T06:55:35.601Z,12.10
2018-05-08T06:58:02.148Z,11.67
2018-05-08T07:00:28.604Z,9.77
2018-05-08T07:02:55.185Z,10.27
2018-05-08T07:05:21.773Z,11.00
2018-05-08T07:07:48.526Z,11.37
2018-05-08T07:10:15.082Z,9.83
2018-05-08T07:12:41.792Z,9.00
2018-05-08T07:15:08.300Z,14.60
2018-05-08T07:17:35.057Z,11.53
2018-05-08T07:20:01.623Z,8.80
2018-05-08T07:22:28.321Z,11.67
2018-05-08T07:24:54.914Z,8.97
2018-05-08T07:27:21.599Z,12.53
2018-05-08T07:29:48.200Z,13.00
2018-05-08T07:32:14.883Z,8.60
2018-05-08T07:34:41.641Z,8.50
2018-05-08T07:37:08.205Z,9.60
2018-05-08T07:39:34.684Z,10.03
2018-05-08T07:42:01.145Z,11.67
2018-05-08T07:44:27.650Z,8.63
2018-05-08T07:46:54.278Z,8.70
2018-05-08T07:49:20.893Z,7.67
2018-05-08T07:51:47.605Z,11.87
2018-05-08T07:54:13.982Z,8.27
2018-05-08T07:56:40.590Z,7.07
2018-05-08T07:59:07.164Z,13.13
2018-05-08T08:01:33.747Z,6.60
2018-05-08T08:04:00.181Z,9.57
2018-05-08T08:06:26.628Z,5.80
2018-05-08T08:08:53.218Z,10.93
2018-05-08T08:11:34.660Z,5.80
2018-05-08T08:14:01.218Z,8.73
2018-05-08T08:16:27.762Z,8.93
2018-05-08T08:18:54.335Z,10.37
2018-05-08T08:21:21.000Z,9.00
2018-05-08T08:23:47.637Z,6.67
2018-05-08T08:26:14.056Z,9.37
2018-05-08T08:28:40.569Z,7.67
2018-05-08T08:31:07.413Z,8.40
2018-05-08T08:33:33.997Z,5.53
2018-05-08T08:36:00.542Z,10.77
2018-05-08T08:38:26.962Z,9.53
2018-05-08T08:40:53.482Z,11.90
2018-05-08T08:43:20.073Z,15.13
2018-05-08T08:45:46.525Z,11.40
2018-05-08T08:48:13.063Z,5.37
2018-05-08T08:50:39.573Z,6.73
2018-05-08T08:53:06.175Z,8.27
2018-05-08T08:55:32.652Z,7.93
2018-05-08T08:57:59.161Z,11.97
2018-05-08T09:00:25.653Z,10.73
2018-05-08T09:02:52.204Z,7.20
2018-05-08T09:05:18.716Z,6.70
2018-05-08T09:07:45.213Z,7.40
2018-05-08T09:10:11.846Z,7.80
2018-05-08T09:12:38.356Z,7.97
2018-05-08T09:15:05.044Z,6.70
2018-05-08T09:17:31.570Z,9.77
2018-05-08T09:19:57.984Z,9.83
2018-05-08T09:22:24.428Z,7.07
2018-05-08T09:24:50.926Z,6.93
2018-05-08T09:27:17.468Z,11.83
2018-05-08T09:29:43.950Z,12.13
2018-05-08T09:32:10.541Z,6.87
2018-05-08T09:34:37.040Z,10.17
2018-05-08T09:37:03.506Z,7.07
2018-05-08T09:39:30.018Z,7.43
2018-05-08T09:41:56.533Z,6.80
2018-05-08T09:44:23.569Z,7.47
2018-05-08T09:46:50.093Z,5.37
2018-05-08T09:49:16.677Z,11.27
2018-05-08T09:51:43.175Z,9.73
2018-05-08T09:54:09.678Z,10.37
2018-05-08T09:56:36.166Z,8.07
2018-05-08T09:59:02.674Z,8.17
2018-05-08T10:01:29.281Z,9.87
2018-05-08T10:03:55.756Z,7.10
2018-05-08T10:06:22.314Z,9.27
2018-05-08T10:08:48.908Z,5.27
2018-05-08T10:11:15.328Z,11.23
2018-05-08T10:13:41.875Z,6.63
2018-05-08T10:16:08.387Z,5.53
2018-05-08T10:18:34.904Z,8.10
2018-05-08T10:21:01.316Z,8.00
2018-05-08T10:23:27.834Z,5.63
2018-05-08T10:25:54.371Z,5.30
2018-05-08T10:28:20.929Z,8.67
2018-05-08T10:30:47.434Z,8.57
2018-05-08T10:33:13.830Z,5.57
2018-05-08T10:35:40.298Z,6.90
2018-05-08T10:38:06.721Z,7.50
2018-05-08T10:40:33.255Z,7.77
2018-05-08T10:42:59.797Z,5.30
2018-05-08T10:45:26.236Z,5.73
2018-05-08T10:49:17.758Z,6.13
2018-05-08T10:51:44.380Z,4.13
2018-05-08T10:54:10.939Z,7.43
2018-05-08T10:56:37.360Z,5.67
2018-05-08T10:59:03.908Z,6.07
2018-05-08T11:01:30.441Z,5.17
2018-05-08T11:03:56.999Z,7.57
2018-05-08T11:06:23.430Z,7.40
2018-05-08T11:08:49.951Z,5.50
2018-05-08T11:19:03.813Z,5.20
2018-05-08T11:21:30.409Z,4.47
2018-05-08T11:23:56.995Z,7.40
2018-05-08T11:26:23.490Z,9.40
2018-05-08T11:28:50.080Z,8.97
2018-05-08T11:31:16.610Z,6.23
2018-05-08T11:33:43.147Z,4.43
2018-05-08T11:36:09.692Z,4.07
2018-05-08T11:38:36.211Z,4.17
2018-05-08T11:41:02.769Z,5.37
2018-05-08T11:43:29.200Z,8.57
2018-05-08T11:45:55.802Z,4.27
2018-05-08T11:48:22.236Z,5.37
2018-05-08T11:50:48.732Z,4.07
2018-05-08T11:53:15.164Z,3.20
2018-05-08T11:55:41.651Z,7.20
2018-05-08T11:58:08.199Z,3.93
2018-05-08T12:00:34.748Z,4.00
2018-05-08T12:03:01.218Z,6.13
2018-05-08T12:05:27.879Z,6.80
2018-05-08T12:07:54.282Z,6.60
2018-05-08T12:10:20.846Z,5.13
2018-05-08T12:12:47.468Z,3.87
2018-05-08T12:15:14.091Z,4.73
2018-05-08T12:17:41.693Z,8.60
2018-05-08T12:20:08.164Z,7.47
2018-05-08T12:22:34.739Z,5.93
2018-05-08T12:25:01.240Z,4.20
2018-05-08T12:27:27.664Z,3.43
2018-05-08T12:29:54.148Z,4.20
2018-05-08T12:32:20.652Z,4.00
2018-05-08T12:34:47.132Z,4.63
2018-05-08T12:37:13.609Z,3.30
2018-05-08T12:39:40.136Z,4.17
2018-05-08T12:42:06.635Z,6.67
2018-05-08T12:44:33.100Z,4.47
2018-05-08T12:46:59.608Z,6.80
2018-05-08T12:49:26.152Z,7.77
2018-05-08T12:51:52.757Z,7.20
2018-05-08T12:54:19.332Z,4.43
2018-05-08T12:56:45.924Z,6.60
2018-05-08T12:59:12.482Z,3.27
2018-05-08T13:01:38.985Z,4.47
2018-05-08T13:04:05.474Z,3.40
2018-05-08T13:06:31.909Z,3.50
2018-05-08T13:08:58.311Z,7.00
2018-05-08T13:11:24.794Z,5.67
2018-05-08T13:13:51.360Z,5.73
2018-05-08T13:16:17.874Z,3.87
2018-05-08T13:18:44.526Z,5.10
2018-05-08T13:21:11.059Z,6.07
2018-05-08T13:23:37.640Z,6.20
2018-05-08T13:26:04.064Z,7.03
2018-05-08T13:28:30.439Z,4.37
2018-05-08T13:30:57.004Z,7.83
2018-05-08T13:33:23.561Z,4.33
2018-05-08T13:35:50.265Z,7.87
2018-05-08T13:38:16.778Z,7.40
2018-05-08T13:40:43.238Z,5.93
2018-05-08T13:43:09.636Z,3.77
2018-05-08T13:45:36.093Z,7.03
2018-05-08T13:48:02.732Z,4.60
2018-05-08T13:50:29.252Z,5.63
2018-05-08T13:52:55.738Z,3.10
2018-05-08T13:55:22.349Z,2.70
2018-05-08T13:57:48.816Z,5.07
2018-05-08T14:00:15.513Z,5.97
2018-05-08T14:02:41.986Z,5.07
2018-05-08T14:05:08.570Z,4.17
2018-05-08T14:07:35.061Z,5.90
2018-05-08T14:10:01.538Z,9.40
2018-05-08T14:12:28.106Z,5.97
2018-05-08T14:14:54.571Z,6.30
2018-05-08T14:17:21.057Z,5.33
2018-05-08T14:19:47.594Z,6.07
2018-05-08T14:22:13.978Z,3.47
2018-05-08T14:24:40.572Z,7.40
2018-05-08T14:27:07.069Z,7.80
2018-05-08T14:29:33.651Z,4.60
2018-05-08T14:32:00.260Z,5.17
2018-05-08T14:34:26.814Z,11.97
2018-05-08T14:36:53.398Z,6.90
2018-05-08T14:39:19.995Z,6.67
2018-05-08T14:41:46.585Z,4.77
2018-05-08T14:44:13.077Z,6.50
2018-05-08T14:46:39.552Z,3.00
2018-05-08T14:49:06.096Z,6.83
2018-05-08T14:51:32.600Z,7.20
2018-05-08T14:53:59.133Z,5.07
2018-05-08T14:56:25.716Z,7.83
2018-05-08T14:58:52.439Z,6.17
2018-05-08T15:01:18.887Z,5.10
2018-05-08T15:03:45.344Z,11.33
2018-05-08T15:06:11.863Z,7.17
2018-05-08T15:08:38.364Z,4.20
2018-05-08T15:11:05.019Z,2.90
2018-05-08T15:13:31.493Z,3.20
2018-05-08T15:15:58.034Z,3.87
2018-05-08T15:18:24.540Z,4.37
2018-05-08T15:20:50.989Z,6.53
2018-05-08T15:23:17.441Z,3.93
2018-05-08T15:25:43.987Z,3.20
2018-05-08T15:28:10.511Z,6.83
2018-05-08T15:30:36.989Z,9.37
2018-05-08T15:33:03.674Z,5.50
2018-05-08T15:44:36.208Z,6.70
2018-05-08T15:47:02.770Z,6.20
2018-05-08T15:49:29.442Z,4.10
2018-05-08T15:51:56.182Z,8.13
2018-05-08T15:54:22.865Z,6.87
2018-05-08T15:56:49.336Z,5.00
2018-05-08T15:59:15.849Z,5.43
2018-05-08T16:01:42.475Z,5.37
2018-05-08T16:04:08.886Z,5.83
2018-05-08T16:06:35.397Z,8.93
2018-05-08T16:09:01.880Z,4.60
2018-05-08T16:11:28.441Z,8.53
2018-05-08T16:13:55.029Z,5.20
2018-05-08T16:16:21.477Z,5.03
2018-05-08T16:24:16.085Z,3.50
2018-05-08T16:26:42.597Z,5.07
2018-05-08T16:29:09.060Z,6.57
2018-05-08T16:31:35.670Z,6.67
2018-05-08T16:34:02.373Z,5.43
2018-05-08T16:36:29.304Z,7.87
2018-05-08T16:38:55.825Z,4.03
2018-05-08T16:41:22.236Z,6.80
2018-05-08T16:43:48.818Z,6.43
2018-05-08T16:46:15.380Z,4.50
2018-05-08T16:48:41.921Z,4.10
2018-05-08T16:51:08.339Z,6.90
2018-05-08T16:53:34.916Z,7.23
2018-05-08T16:56:01.436Z,4.63
2018-05-08T16:58:27.896Z,4.07
2018-05-08T17:00:54.465Z,7.93
2018-05-08T17:03:20.884Z,9.53
2018-05-08T17:05:47.501Z,12.10
2018-05-08T17:08:14.595Z,9.33
2018-05-08T17:10:41.245Z,4.87
2018-05-08T17:13:07.784Z,6.07
2018-05-08T17:15:34.434Z,7.80
2018-05-08T17:18:00.995Z,5.77
2018-05-08T17:20:27.597Z,7.20
2018-05-08T17:22:54.030Z,5.73
2018-05-08T17:25:35.467Z,6.03
2018-05-08T17:28:02.230Z,10.23
2018-05-08T17:30:28.778Z,5.40
2018-05-08T17:32:55.461Z,6.73
2018-05-08T17:35:22.149Z,3.07
2018-05-08T17:37:48.890Z,3.97
2018-05-08T17:40:15.427Z,5.90
2018-05-08T17:42:41.968Z,3.47
2018-05-08T17:45:08.719Z,10.47
2018-05-08T17:47:35.268Z,7.13
2018-05-08T17:50:01.736Z,3.53
2018-05-08T17:52:28.249Z,11.37
2018-05-08T17:54:54.776Z,11.57
2018-05-08T17:57:21.980Z,6.30
2018-05-08T18:00:03.352Z,7.37
2018-05-08T18:02:29.968Z,7.17
2018-05-08T18:04:56.404Z,4.83
2018-05-08T18:07:22.932Z,10.17
2018-05-08T18:09:49.564Z,6.73
2018-05-08T18:12:16.106Z,17.33
2018-05-08T18:14:42.852Z,14.20
2018-05-08T18:17:09.523Z,18.13
2018-05-08T18:19:36.113Z,13.73
2018-05-08T18:22:02.603Z,11.00
2018-05-08T18:24:29.081Z,8.20
2018-05-08T18:26:55.719Z,7.97
2018-05-08T18:29:22.332Z,11.07
2018-05-08T18:31:48.942Z,8.23
2018-05-08T18:34:15.872Z,11.13
2018-05-08T18:36:42.413Z,12.63
2018-05-08T18:39:08.840Z,9.80
2018-05-08T18:41:35.265Z,11.80
2018-05-08T18:44:01.799Z,8.80
2018-05-08T18:46:28.272Z,9.03
2018-05-08T18:54:05.140Z,9.97
2018-05-08T18:56:31.620Z,9.13
2018-05-08T18:58:58.285Z,11.00
2018-05-08T19:01:24.784Z,7.57
2018-05-08T19:03:51.426Z,7.53
2018-05-08T19:06:18.036Z,8.90
2018-05-08T19:08:45.157Z,5.73
2018-05-08T19:14:10.098Z,9.47
2018-05-08T19:16:36.723Z,6.27
2018-05-08T19:19:09.129Z,9.40
2018-05-08T19:21:35.687Z,10.80
2018-05-08T19:24:08.033Z,15.73
2018-05-08T19:26:34.463Z,29.67
2018-05-08T19:29:21.806Z,12.17
2018-05-08T19:31:48.494Z,7.77
2018-05-08T19:34:15.150Z,10.17
2018-05-08T19:36:47.730Z,8.97
2018-05-08T19:39:14.472Z,9.30
2018-05-08T19:41:40.952Z,5.73
2018-05-08T19:44:07.537Z,7.93
2018-05-08T19:46:34.064Z,10.03
2018-05-08T19:49:00.853Z,7.83
2018-05-08T19:51:27.277Z,6.07
2018-05-08T19:53:53.825Z,7.17
2018-05-08T19:56:20.449Z,5.63
2018-05-08T19:58:47.125Z,7.10
2018-05-08T20:01:13.769Z,8.13
2018-05-08T20:03:40.398Z,4.87
2018-05-08T20:06:06.907Z,6.40
2018-05-08T20:08:33.510Z,5.67
2018-05-08T20:11:00.365Z,9.13
2018-05-08T20:13:27.005Z,5.00
2018-05-08T20:15:53.589Z,8.63
2018-05-08T20:18:20.116Z,9.97
2018-05-08T20:20:46.638Z,7.23
2018-05-08T20:23:20.259Z,6.37
2018-05-08T20:25:46.867Z,6.70
2018-05-08T20:28:13.361Z,5.47
2018-05-08T20:30:40.122Z,4.33
2018-05-08T20:33:06.494Z,4.37
2018-05-08T20:35:33.068Z,4.90
2018-05-08T20:37:59.825Z,6.80
2018-05-08T20:40:26.389Z,5.03
2018-05-08T20:42:53.093Z,2.90
2018-05-08T20:45:19.583Z,4.80
2018-05-08T20:47:46.121Z,4.60
2018-05-08T20:50:12.590Z,5.13
2018-05-08T20:52:39.198Z,2.90
2018-05-08T20:55:05.919Z,4.43
2018-05-08T20:57:32.577Z,2.93
2018-05-08T20:59:59.087Z,6.70
2018-05-08T21:02:25.640Z,6.07
2018-05-08T21:04:52.126Z,3.47
2018-05-08T21:07:18.632Z,5.87
2018-05-08T21:09:45.260Z,5.67
2018-05-08T21:12:12.129Z,9.97
2018-05-08T21:14:38.620Z,3.97
2018-05-08T21:17:05.256Z,3.27
2018-05-08T21:19:31.922Z,7.73
2018-05-08T21:21:58.440Z,4.60
2018-05-08T21:24:25.081Z,4.23
2018-05-08T21:26:51.619Z,3.90
2018-05-08T21:29:24.200Z,7.90
2018-05-08T21:31:50.822Z,5.37
2018-05-08T21:34:17.284Z,4.57
2018-05-08T21:36:43.841Z,6.60
2018-05-08T21:39:10.568Z,6.83
2018-05-08T21:41:37.104Z,3.13
2018-05-08T21:44:03.613Z,4.70
2018-05-08T21:46:30.156Z,4.87
2018-05-08T21:48:56.731Z,3.43
2018-05-08T21:51:23.974Z,5.03
2018-05-08T21:53:50.573Z,5.97
2018-05-08T21:56:17.130Z,5.67
2018-05-08T21:58:43.653Z,6.90
2018-05-08T22:01:10.179Z,3.00
2018-05-08T22:03:36.853Z,3.90
2018-05-08T22:06:03.441Z,3.93
2018-05-08T22:08:29.930Z,4.07
2018-05-08T22:10:56.715Z,8.40
2018-05-08T22:13:23.313Z,4.00
2018-05-08T22:15:49.926Z,4.07
2018-05-08T22:18:16.328Z,2.43
2018-05-08T22:20:42.942Z,2.50
2018-05-08T22:23:10.087Z,5.57
2018-05-08T22:25:37.495Z,5.60
2018-05-08T22:28:04.178Z,6.70
2018-05-08T22:30:30.602Z,4.53
2018-05-08T22:32:57.194Z,6.13
2018-05-08T22:35:23.733Z,5.60
2018-05-08T22:37:50.345Z,5.53
2018-05-08T22:40:17.132Z,6.30
2018-05-08T22:42:43.731Z,3.37
2018-05-08T22:45:10.449Z,4.23
2018-05-08T22:47:37.005Z,3.93
2018-05-08T22:50:03.609Z,2.90
2018-05-08T22:52:30.213Z,3.90
2018-05-08T22:54:56.836Z,5.57
2018-05-08T22:57:23.398Z,5.60
2018-05-08T22:59:50.046Z,6.53
2018-05-08T23:02:16.865Z,4.23
2018-05-08T23:04:43.411Z,4.13
2018-05-08T23:07:09.849Z,4.67
2018-05-08T23:09:36.588Z,3.97
2018-05-08T23:12:03.158Z,5.17
2018-05-08T23:14:29.857Z,4.57
2018-05-08T23:16:56.392Z,5.50
2018-05-08T23:19:23.149Z,4.00
2018-05-08T23:21:49.712Z,6.20
2018-05-08T23:24:16.223Z,4.90
2018-05-08T23:26:42.709Z,5.83
2018-05-08T23:29:09.313Z,3.87
2018-05-08T23:31:35.854Z,3.70
2018-05-08T23:34:02.425Z,4.40
2018-05-08T23:36:29.080Z,6.73
2018-05-08T23:38:55.635Z,5.97
2018-05-08T23:41:22.172Z,3.10
2018-05-08T23:43:48.681Z,6.30
2018-05-08T23:46:15.201Z,4.27
2018-05-08T23:48:41.682Z,5.17
2018-05-08T23:51:08.229Z,8.73
2018-05-08T23:53:34.817Z,4.40
2018-05-08T23:56:01.562Z,5.07
2018-05-08T23:58:28.165Z,10.20
